createdAt,value
2022-08-25T00:02:55.450Z,19.67
2022-08-25T00:06:03.459Z,19.66
2022-08-25T00:09:15.627Z,19.64
2022-08-25T00:12:22.348Z,19.65
2022-08-25T00:15:28.763Z,19.67
2022-08-25T00:18:37.534Z,19.65
2022-08-25T00:21:43.540Z,19.62
2022-08-25T00:24:53.325Z,19.61
2022-08-25T00:27:59.384Z,19.60
2022-08-25T00:31:08.073Z,19.62
2022-08-25T00:34:16.841Z,19.64
2022-08-25T00:37:23.727Z,19.67
2022-08-25T00:40:33.443Z,19.70
2022-08-25T00:43:49.265Z,19.76
2022-08-25T00:46:57.252Z,19.76
2022-08-25T00:50:07.133Z,19.69
2022-08-25T00:53:14.938Z,19.71
2022-08-25T00:56:25.887Z,19.75
2022-08-25T00:59:32.377Z,19.76
2022-08-25T01:02:39.238Z,19.80
2022-08-25T01:05:46.929Z,19.83
2022-08-25T01:08:54.880Z,19.84
2022-08-25T01:12:04.405Z,19.85
2022-08-25T01:15:13.859Z,19.82
2022-08-25T01:18:21.019Z,19.80
2022-08-25T01:21:34.536Z,19.76
2022-08-25T01:24:44.029Z,19.70
2022-08-25T01:27:50.789Z,19.66
2022-08-25T01:30:56.882Z,19.60
2022-08-25T01:34:04.281Z,19.55
2022-08-25T01:37:15.904Z,19.50
2022-08-25T01:40:23.340Z,19.47
2022-08-25T01:43:34.757Z,19.47
2022-08-25T01:46:41.739Z,19.50
2022-08-25T01:49:47.845Z,19.49
2022-08-25T01:53:03.231Z,19.52
2022-08-25T01:56:13.125Z,19.59
2022-08-25T01:59:24.021Z,19.59
2022-08-25T02:02:31.706Z,19.60
2022-08-25T02:05:39.849Z,19.63
2022-08-25T02:08:49.268Z,19.59
2022-08-25T02:11:57.078Z,19.55
2022-08-25T02:15:03.235Z,19.54
2022-08-25T02:18:10.857Z,19.54
2022-08-25T02:21:17.092Z,19.43
2022-08-25T02:24:27.376Z,19.37
2022-08-25T02:27:33.541Z,19.35
2022-08-25T02:30:42.753Z,19.41
2022-08-25T02:33:48.983Z,19.38
2022-08-25T02:36:56.210Z,19.36
2022-08-25T02:40:07.707Z,19.42
2022-08-25T02:43:13.661Z,19.44
2022-08-25T02:46:23.019Z,19.45
2022-08-25T02:49:29.014Z,19.45
2022-08-25T02:52:35.872Z,19.40
2022-08-25T02:55:44.767Z,19.39
2022-08-25T02:58:51.618Z,19.38
2022-08-25T03:01:57.494Z,19.45
2022-08-25T03:05:04.553Z,19.43
2022-08-25T03:08:12.365Z,19.42
2022-08-25T03:11:22.471Z,19.43
2022-08-25T03:14:28.344Z,19.45
2022-08-25T03:17:36.014Z,19.42
2022-08-25T03:20:43.298Z,19.42
2022-08-25T03:23:50.045Z,19.38
2022-08-25T03:26:56.558Z,19.42
2022-08-25T03:30:03.711Z,19.46
2022-08-25T03:33:09.615Z,19.48
2022-08-25T03:36:16.774Z,19.54
2022-08-25T03:39:25.923Z,19.60
2022-08-25T03:42:35.571Z,19.60
2022-08-25T03:45:43.536Z,19.50
2022-08-25T03:48:50.435Z,19.44
2022-08-25T03:51:58.028Z,19.42
2022-08-25T03:55:07.115Z,19.42
2022-08-25T03:58:15.851Z,19.47
2022-08-25T04:01:23.132Z,19.43
2022-08-25T04:04:29.057Z,19.42
2022-08-25T04:07:35.866Z,19.36
2022-08-25T04:10:41.850Z,19.33
2022-08-25T04:13:52.121Z,19.35
2022-08-25T04:16:58.151Z,19.35
2022-08-25T04:20:06.973Z,19.35
2022-08-25T04:23:13.828Z,19.34
2022-08-25T04:26:28.322Z,19.38
2022-08-25T04:29:37.287Z,19.45
2022-08-25T04:32:44.037Z,19.50
2022-08-25T04:35:52.012Z,19.60
2022-08-25T04:38:58.951Z,19.71
2022-08-25T04:42:06.273Z,19.80
2022-08-25T04:45:15.918Z,19.87
2022-08-25T04:48:22.211Z,19.94
2022-08-25T04:51:31.539Z,19.98
2022-08-25T04:54:37.575Z,20.01
2022-08-25T04:57:44.346Z,20.09
2022-08-25T05:00:53.406Z,20.19
2022-08-25T05:04:03.239Z,20.23
2022-08-25T05:07:09.668Z,20.30
2022-08-25T05:10:17.244Z,20.30
2022-08-25T05:13:23.759Z,20.37
2022-08-25T05:16:34.441Z,20.48
2022-08-25T05:19:40.777Z,20.56
2022-08-25T05:22:49.198Z,20.61
2022-08-25T05:25:57.271Z,20.65
2022-08-25T05:29:07.918Z,20.66
2022-08-25T05:32:16.687Z,20.79
2022-08-25T05:35:24.997Z,20.93
2022-08-25T05:38:31.707Z,20.99
2022-08-25T05:41:38.591Z,21.07
2022-08-25T05:44:44.752Z,21.07
2022-08-25T05:47:54.421Z,21.15
2022-08-25T05:51:03.038Z,21.31
2022-08-25T05:54:10.009Z,21.51
2022-08-25T05:57:15.970Z,21.55
2022-08-25T06:00:23.022Z,21.57
2022-08-25T06:03:29.367Z,21.69
2022-08-25T06:06:36.565Z,21.83
2022-08-25T06:09:46.445Z,21.82
2022-08-25T06:12:53.254Z,21.84
2022-08-25T06:16:09.380Z,21.88
2022-08-25T06:19:19.153Z,21.96
2022-08-25T06:22:25.627Z,22.08
2022-08-25T06:25:34.123Z,22.24
2022-08-25T06:28:40.140Z,22.42
2022-08-25T06:31:50.178Z,22.50
2022-08-25T06:34:59.206Z,22.55
2022-08-25T06:38:06.953Z,22.64
2022-08-25T06:41:14.184Z,22.75
2022-08-25T06:44:20.876Z,22.76
2022-08-25T06:47:27.495Z,22.88
2022-08-25T06:50:37.038Z,23.00
2022-08-25T06:53:43.231Z,23.13
2022-08-25T06:56:50.047Z,23.30
2022-08-25T06:59:56.710Z,23.37
2022-08-25T07:03:07.168Z,23.37
2022-08-25T07:06:16.591Z,23.45
2022-08-25T07:09:25.288Z,23.53
2022-08-25T07:12:31.211Z,23.61
2022-08-25T07:15:41.696Z,23.62
2022-08-25T07:18:49.079Z,23.62
2022-08-25T07:21:58.635Z,23.73
2022-08-25T07:25:06.107Z,23.84
2022-08-25T07:28:12.968Z,23.96
2022-08-25T07:31:19.554Z,24.09
2022-08-25T07:34:56.611Z,24.11
2022-08-25T07:38:06.911Z,24.19
2022-08-25T07:41:17.282Z,24.24
2022-08-25T07:44:24.756Z,24.31
2022-08-25T07:47:35.155Z,24.42
2022-08-25T07:50:45.493Z,24.48
2022-08-25T07:53:55.274Z,24.51
2022-08-25T07:57:04.171Z,24.50
2022-08-25T08:00:12.189Z,24.45
2022-08-25T08:03:29.394Z,24.38
2022-08-25T08:06:45.050Z,24.35
2022-08-25T08:10:18.961Z,24.36
2022-08-25T08:13:23.847Z,24.42
2022-08-25T08:16:33.802Z,24.55
2022-08-25T08:19:44.826Z,24.62
2022-08-25T08:22:51.344Z,24.64
2022-08-25T08:26:01.172Z,24.64
2022-08-25T08:29:07.949Z,24.66
2022-08-25T08:32:18.775Z,24.75
2022-08-25T08:35:24.779Z,24.78
2022-08-25T08:38:32.350Z,24.80
2022-08-25T08:42:11.535Z,24.82
2022-08-25T08:45:40.654Z,24.76
2022-08-25T08:49:04.358Z,24.68
2022-08-25T08:52:13.358Z,24.66
2022-08-25T08:55:30.635Z,24.72
2022-08-25T08:58:45.569Z,24.76
2022-08-25T09:02:03.143Z,24.78
2022-08-25T09:05:15.151Z,24.74
2022-08-25T09:08:21.540Z,24.80
2022-08-25T09:11:40.044Z,24.86
2022-08-25T09:15:12.573Z,25.01
2022-08-25T09:18:30.613Z,25.05
2022-08-25T09:21:43.884Z,25.12
2022-08-25T09:25:00.132Z,25.20
2022-08-25T09:28:11.433Z,25.24
2022-08-25T09:31:29.587Z,25.33
2022-08-25T09:34:37.764Z,25.42
2022-08-25T09:37:44.776Z,25.50
2022-08-25T09:40:53.808Z,25.56
2022-08-25T09:44:03.233Z,25.63
2022-08-25T09:47:24.543Z,25.73
2022-08-25T09:50:36.159Z,25.74
2022-08-25T09:53:55.101Z,25.75
2022-08-25T09:57:08.557Z,25.74
2022-08-25T10:00:23.413Z,25.75
2022-08-25T10:03:36.348Z,25.76
2022-08-25T10:06:48.240Z,25.88
2022-08-25T10:09:57.845Z,25.99
2022-08-25T10:13:07.075Z,25.96
2022-08-25T10:16:27.005Z,26.02
2022-08-25T10:19:38.742Z,26.03
2022-08-25T10:22:50.297Z,26.09
2022-08-25T10:26:01.832Z,26.20
2022-08-25T10:29:27.063Z,26.22
2022-08-25T10:32:43.370Z,26.27
2022-08-25T10:36:03.088Z,26.37
2022-08-25T10:39:33.869Z,26.41
2022-08-25T10:42:48.500Z,26.47
2022-08-25T10:46:10.299Z,26.66
2022-08-25T10:49:23.094Z,26.72
2022-08-25T10:52:40.119Z,26.78
2022-08-25T10:55:56.277Z,26.78
2022-08-25T10:59:42.767Z,26.90
2022-08-25T11:03:12.044Z,26.97
2022-08-25T11:06:23.560Z,27.01
2022-08-25T11:09:40.186Z,27.08
2022-08-25T11:12:49.061Z,27.13
2022-08-25T11:16:17.183Z,27.24
2022-08-25T11:19:27.465Z,27.29
2022-08-25T11:22:40.881Z,27.24
2022-08-25T11:25:54.134Z,27.28
2022-08-25T11:29:11.360Z,27.34
2022-08-25T11:32:22.792Z,27.52
2022-08-25T11:35:33.064Z,27.72
2022-08-25T11:38:51.105Z,27.78
2022-08-25T11:42:17.771Z,27.91
2022-08-25T11:45:44.120Z,27.93
2022-08-25T11:49:04.744Z,28.03
2022-08-25T11:52:46.147Z,28.24
2022-08-25T11:55:56.227Z,28.30
2022-08-25T11:59:06.969Z,28.29
2022-08-25T12:02:34.236Z,28.33
2022-08-25T12:06:21.635Z,28.31
2022-08-25T12:09:28.621Z,28.28
2022-08-25T12:12:41.598Z,28.28
2022-08-25T12:16:03.103Z,28.27
2022-08-25T12:19:34.041Z,28.35
2022-08-25T12:23:03.071Z,28.39
2022-08-25T12:26:17.785Z,28.45
2022-08-25T12:29:33.565Z,28.49
2022-08-25T12:32:58.729Z,28.54
2022-08-25T12:36:11.126Z,28.58
2022-08-25T12:39:24.215Z,28.56
2022-08-25T12:42:38.340Z,28.60
2022-08-25T12:45:49.364Z,28.72
2022-08-25T12:49:04.151Z,28.81
2022-08-25T12:52:15.243Z,28.78
2022-08-25T12:55:25.173Z,28.68
2022-08-25T12:58:58.981Z,28.68
2022-08-25T13:02:35.307Z,28.78
2022-08-25T13:06:13.147Z,28.85
2022-08-25T13:10:01.038Z,28.86
2022-08-25T13:13:16.500Z,28.86
2022-08-25T13:16:29.669Z,28.85
2022-08-25T13:19:36.065Z,28.76
2022-08-25T13:22:48.524Z,28.78
2022-08-25T13:25:58.367Z,28.83
2022-08-25T13:29:17.967Z,28.91
2022-08-25T13:32:32.370Z,28.96
2022-08-25T13:35:41.230Z,29.04
2022-08-25T13:38:57.624Z,29.14
2022-08-25T13:42:07.474Z,29.23
2022-08-25T13:45:18.358Z,29.25
2022-08-25T13:48:36.569Z,29.29
2022-08-25T13:51:54.767Z,29.29
2022-08-25T13:55:06.143Z,29.30
2022-08-25T13:58:24.332Z,29.39
2022-08-25T14:01:48.721Z,29.46
2022-08-25T14:04:55.681Z,29.53
2022-08-25T14:08:16.117Z,29.51
2022-08-25T14:11:37.621Z,29.56
2022-08-25T14:14:46.021Z,29.59
2022-08-25T14:18:06.554Z,29.59
2022-08-25T14:21:14.727Z,29.62
2022-08-25T14:24:22.881Z,29.55
2022-08-25T14:27:38.746Z,29.52
2022-08-25T14:30:52.485Z,29.59
2022-08-25T14:34:03.062Z,29.61
2022-08-25T14:37:15.594Z,29.57
2022-08-25T14:40:23.130Z,29.55
2022-08-25T14:43:32.386Z,29.60
2022-08-25T14:46:46.217Z,29.66
2022-08-25T14:49:52.840Z,29.63
2022-08-25T14:53:00.093Z,29.54
2022-08-25T14:56:10.298Z,29.50
2022-08-25T14:59:20.145Z,29.47
2022-08-25T15:02:29.548Z,29.40
2022-08-25T15:05:37.640Z,29.38
2022-08-25T15:08:59.554Z,29.49
2022-08-25T15:12:07.191Z,29.52
2022-08-25T15:15:17.664Z,29.49
2022-08-25T15:18:26.065Z,29.51
2022-08-25T15:21:32.456Z,29.54
2022-08-25T15:24:39.294Z,29.53
2022-08-25T15:27:45.712Z,29.51
2022-08-25T15:30:55.978Z,29.49
2022-08-25T15:34:03.042Z,29.52
2022-08-25T15:37:12.104Z,29.62
2022-08-25T15:40:19.188Z,29.65
2022-08-25T15:43:26.370Z,29.74
2022-08-25T15:46:35.732Z,29.93
2022-08-25T15:49:43.377Z,30.13
2022-08-25T15:52:49.774Z,30.51
2022-08-25T15:55:57.695Z,31.03
2022-08-25T15:59:10.534Z,31.44
2022-08-25T16:02:20.186Z,31.88
2022-08-25T16:05:26.359Z,32.06
2022-08-25T16:08:34.077Z,32.23
2022-08-25T16:11:43.813Z,32.32
2022-08-25T16:14:51.156Z,32.36
2022-08-25T16:18:04.769Z,32.47
2022-08-25T16:21:13.199Z,32.62
2022-08-25T16:24:20.802Z,32.74
2022-08-25T16:27:28.035Z,32.81
2022-08-25T16:30:50.256Z,32.88
2022-08-25T16:34:03.150Z,32.85
2022-08-25T16:37:09.338Z,32.77
2022-08-25T16:40:19.151Z,32.55
2022-08-25T16:43:26.645Z,32.23
2022-08-25T16:46:34.031Z,31.91
2022-08-25T16:49:43.463Z,31.57
2022-08-25T16:53:08.071Z,31.26
2022-08-25T16:56:14.371Z,30.91
2022-08-25T16:59:21.387Z,30.63
2022-08-25T17:02:29.999Z,30.36
2022-08-25T17:05:45.734Z,30.13
2022-08-25T17:08:52.738Z,29.84
2022-08-25T17:11:59.785Z,29.65
2022-08-25T17:15:08.115Z,29.45
2022-08-25T17:18:14.922Z,29.26
2022-08-25T17:21:27.053Z,29.07
2022-08-25T17:24:33.982Z,28.90
2022-08-25T17:27:41.308Z,28.72
2022-08-25T17:30:49.659Z,28.52
2022-08-25T17:33:56.221Z,28.32
2022-08-25T17:37:07.018Z,28.13
2022-08-25T17:40:14.598Z,27.96
2022-08-25T17:43:21.378Z,27.80
2022-08-25T17:46:27.562Z,27.64
2022-08-25T17:49:34.613Z,27.46
2022-08-25T17:52:43.908Z,27.32
2022-08-25T17:55:51.452Z,27.19
2022-08-25T17:58:59.109Z,27.07
2022-08-25T18:02:06.733Z,26.94
2022-08-25T18:05:14.301Z,26.84
2022-08-25T18:08:32.085Z,26.72
2022-08-25T18:11:41.366Z,26.60
2022-08-25T18:14:49.391Z,26.50
2022-08-25T18:17:57.523Z,26.39
2022-08-25T18:21:06.887Z,26.28
2022-08-25T18:24:16.825Z,26.20
2022-08-25T18:27:23.778Z,26.11
2022-08-25T18:30:32.006Z,26.01
2022-08-25T18:33:41.838Z,25.92
2022-08-25T18:36:47.884Z,25.84
2022-08-25T18:40:13.846Z,25.77
2022-08-25T18:43:19.917Z,25.73
2022-08-25T18:46:27.448Z,25.61
2022-08-25T18:49:33.486Z,25.54
2022-08-25T18:52:40.739Z,25.45
2022-08-25T18:55:49.569Z,25.34
2022-08-25T18:58:56.482Z,25.23
2022-08-25T19:02:03.198Z,25.16
2022-08-25T19:05:10.807Z,25.07
2022-08-25T19:08:21.940Z,24.98
2022-08-25T19:11:32.115Z,24.89
2022-08-25T19:14:39.278Z,24.81
2022-08-25T19:17:46.831Z,24.75
2022-08-25T19:20:53.116Z,24.71
2022-08-25T19:23:59.875Z,24.68
2022-08-25T19:27:12.958Z,24.61
2022-08-25T19:30:22.007Z,24.54
2022-08-25T19:33:42.058Z,24.50
2022-08-25T19:36:51.620Z,24.44
2022-08-25T19:39:58.322Z,24.42
2022-08-25T19:43:10.299Z,24.42
2022-08-25T19:46:19.880Z,24.39
2022-08-25T19:49:31.441Z,24.36
2022-08-25T19:52:40.094Z,24.36
2022-08-25T19:55:50.103Z,24.27
2022-08-25T19:58:59.193Z,24.23
2022-08-25T20:02:08.233Z,24.20
2022-08-25T20:05:23.676Z,24.15
2022-08-25T20:08:31.227Z,24.10
2022-08-25T20:11:38.125Z,24.08
2022-08-25T20:14:48.808Z,24.07
2022-08-25T20:17:56.642Z,24.03
2022-08-25T20:21:03.663Z,24.00
2022-08-25T20:24:26.620Z,23.95
2022-08-25T20:27:41.195Z,23.88
2022-08-25T20:30:50.164Z,23.84
2022-08-25T20:34:02.835Z,23.79
2022-08-25T20:37:09.197Z,23.74
2022-08-25T20:40:20.788Z,23.70
2022-08-25T20:43:31.940Z,23.73
2022-08-25T20:46:41.744Z,23.72
2022-08-25T20:49:50.347Z,23.64
2022-08-25T20:52:59.372Z,23.54
2022-08-25T20:56:11.263Z,23.46
2022-08-25T20:59:18.430Z,23.39
2022-08-25T21:02:29.612Z,23.33
2022-08-25T21:05:37.109Z,23.28
2022-08-25T21:08:45.154Z,23.22
2022-08-25T21:11:55.480Z,23.24
2022-08-25T21:15:03.155Z,23.11
2022-08-25T21:18:12.693Z,23.06
2022-08-25T21:21:19.063Z,23.03
2022-08-25T21:24:26.102Z,23.01
2022-08-25T21:27:32.011Z,22.95
2022-08-25T21:30:44.788Z,22.89
2022-08-25T21:33:57.103Z,22.87
2022-08-25T21:37:04.165Z,22.82
2022-08-25T21:40:11.153Z,22.78
2022-08-25T21:43:18.716Z,22.74
2022-08-25T21:46:26.495Z,22.68
2022-08-25T21:49:37.235Z,22.64
2022-08-25T21:52:43.815Z,22.62
2022-08-25T21:55:50.641Z,22.60
2022-08-25T21:58:56.744Z,22.55
2022-08-25T22:02:07.745Z,22.46
2022-08-25T22:05:16.967Z,22.45
2022-08-25T22:08:23.956Z,22.39
2022-08-25T22:11:37.128Z,22.32
2022-08-25T22:14:43.911Z,22.25
2022-08-25T22:17:50.571Z,22.17
2022-08-25T22:21:00.762Z,22.14
2022-08-25T22:24:13.989Z,22.10
2022-08-25T22:27:23.286Z,22.07
2022-08-25T22:30:30.031Z,22.02
2022-08-25T22:33:37.532Z,22.00
2022-08-25T22:36:49.935Z,21.96
2022-08-25T22:39:57.423Z,21.91
2022-08-25T22:43:03.674Z,21.87
2022-08-25T22:46:13.559Z,21.84
2022-08-25T22:49:23.155Z,21.84
2022-08-25T22:52:33.760Z,21.85
2022-08-25T22:55:46.438Z,21.82
2022-08-25T22:58:53.333Z,21.78
2022-08-25T23:01:59.392Z,21.74
2022-08-25T23:05:07.994Z,21.71
2022-08-25T23:11:43.675Z,21.59
2022-08-25T23:14:50.520Z,21.54
2022-08-25T23:17:57.336Z,21.49
2022-08-25T23:21:24.284Z,21.45
2022-08-25T23:24:34.643Z,21.43
2022-08-25T23:27:40.578Z,21.40
2022-08-25T23:30:47.839Z,21.35
2022-08-25T23:34:03.695Z,21.33
2022-08-25T23:37:10.884Z,21.28
2022-08-25T23:40:19.780Z,21.25
2022-08-25T23:43:27.186Z,21.20
2022-08-25T23:46:35.218Z,21.18
2022-08-25T23:49:42.326Z,21.13
2022-08-25T23:52:48.903Z,21.09
2022-08-25T23:56:00.744Z,21.06
2022-08-25T23:59:08.873Z,21.03
